Time;durP1;ratioP1;P1;durP2;ratioP2;P2;SDS_P1;SDS_P2;PMS_P1;PMS_P2;Temp;Humidity;BMP_temperature;BMP_pressure;BME280_temperature;BME280_humidity;BME280_pressure;Samples;Min_cycle;Max_cycle;Signal;HPM_P1;HPM_P2
2024/01/22 00:02:31;;;;;;;84.28;54.58;;;;;;;-1.19;60.17;101789.56;4423494;32;20140;-74
2024/01/22 00:05:00;;;;;;;80.10;53.15;;;;;;;-0.94;59.19;101782.00;4438170;32;20152;-74
2024/01/22 00:07:32;;;;;;;82.78;56.03;;;;;;;-1.11;59.75;101792.22;4438279;32;20163;-74
2024/01/22 00:10:04;;;;;;;80.90;56.33;;;;;;;-1.11;59.89;101781.81;4436791;32;20152;-74
2024/01/22 00:12:34;;;;;;;73.33;51.87;;;;;;;-1.21;59.73;101778.28;4423061;32;20152;-74
2024/01/22 00:15:08;;;;;;;81.07;54.45;;;;;;;-1.25;60.01;101768.72;4431813;27;20147;-74
2024/01/22 00:17:37;;;;;;;83.95;54.28;;;;;;;-1.15;59.69;101777.47;4438570;32;20128;-74
2024/01/22 00:20:08;;;;;;;76.75;52.25;;;;;;;-1.04;59.19;101774.09;4429633;32;20144;-71
2024/01/22 00:22:38;;;;;;;76.10;51.72;;;;;;;-1.18;59.30;101761.84;4423557;32;20153;-72
2024/01/22 00:25:09;;;;;;;75.87;50.30;;;;;;;-1.23;59.30;101779.97;4423562;32;20160;-72
2024/01/22 00:27:38;;;;;;;71.07;52.05;;;;;;;-1.07;58.90;101776.69;4426277;32;20175;-72
2024/01/22 00:30:10;;;;;;;80.43;52.00;;;;;;;-1.19;59.01;101768.75;4438660;32;20504;-72
2024/01/22 00:32:39;;;;;;;79.65;51.10;;;;;;;-1.27;59.17;101771.31;4438791;32;20156;-73
2024/01/22 00:35:09;;;;;;;64.75;46.10;;;;;;;-1.33;59.04;101779.03;4439094;32;20489;-72
2024/01/22 00:37:40;;;;;;;76.57;51.85;;;;;;;-1.32;58.75;101785.97;4438419;32;20497;-72
2024/01/22 00:40:10;;;;;;;79.30;52.38;;;;;;;-1.32;58.35;101783.38;4438452;32;20163;-72
2024/01/22 00:42:39;;;;;;;76.82;50.15;;;;;;;-1.31;58.37;101769.53;4438724;32;20525;-72
2024/01/22 00:45:09;;;;;;;75.30;50.33;;;;;;;-1.10;57.88;101761.06;4443467;27;20501;-72
2024/01/22 00:47:38;;;;;;;69.07;49.90;;;;;;;-1.38;58.48;101754.75;4438504;32;20140;-73
2024/01/22 00:50:08;;;;;;;77.60;51.17;;;;;;;-1.46;59.07;101769.37;4429863;32;20152;-72
2024/01/22 00:52:38;;;;;;;78.20;52.00;;;;;;;-1.47;59.08;101752.03;4423376;32;20145;-72
2024/01/22 00:55:08;;;;;;;74.72;51.78;;;;;;;-1.52;59.08;101745.91;4423360;32;20149;-72
2024/01/22 00:57:38;;;;;;;73.15;50.63;;;;;;;-1.51;59.13;101742.44;4435451;32;20210;-72
2024/01/22 01:00:11;;;;;;;79.65;52.42;;;;;;;-1.60;59.08;101743.25;4438489;32;20156;-72
2024/01/22 01:02:41;;;;;;;75.68;49.85;;;;;;;-1.60;59.29;101750.16;4438845;32;20383;-72
2024/01/22 01:05:10;;;;;;;74.75;50.65;;;;;;;-1.61;58.97;101745.84;4439211;32;20136;-73
2024/01/22 01:07:39;;;;;;;77.82;49.95;;;;;;;-1.51;58.56;101738.13;4438863;32;20148;-73
2024/01/22 01:10:11;;;;;;;70.30;50.53;;;;;;;-1.60;58.82;101735.44;4436058;32;20209;-73
2024/01/22 01:12:43;;;;;;;71.82;49.13;;;;;;;-1.61;58.60;101738.91;4423086;32;20152;-73
2024/01/22 01:15:12;;;;;;;72.85;50.20;;;;;;;-1.67;58.47;101741.44;4432147;27;20149;-73
2024/01/22 01:17:42;;;;;;;74.82;49.08;;;;;;;-1.72;58.71;101735.31;4438487;32;20132;-73
2024/01/22 01:20:12;;;;;;;76.72;51.30;;;;;;;-1.43;57.68;101727.78;4429285;32;20141;-73
2024/01/22 01:22:41;;;;;;;70.10;49.40;;;;;;;-1.57;58.26;101745.00;4423470;32;20141;-73
2024/01/22 01:25:12;;;;;;;71.82;49.83;;;;;;;-1.75;58.48;101745.69;4423317;32;20144;-73
2024/01/22 01:27:41;;;;;;;78.30;53.17;;;;;;;-1.89;59.04;101729.94;4423482;32;20171;-73
2024/01/22 01:30:11;;;;;;;75.30;48.90;;;;;;;-1.86;59.10;101727.41;4423368;32;20148;-73
2024/01/22 01:32:42;;;;;;;74.97;50.83;;;;;;;-1.80;58.99;101727.44;4423735;32;20252;-73
2024/01/22 01:35:11;;;;;;;77.03;50.63;;;;;;;-1.71;58.79;101724.06;4424488;32;20125;-73
2024/01/22 01:37:40;;;;;;;71.43;49.33;;;;;;;-1.99;58.96;101715.09;4423734;32;20148;-73
2024/01/22 01:40:14;;;;;;;78.97;51.80;;;;;;;-2.06;59.11;101714.19;4409262;32;20160;-73
2024/01/22 01:42:44;;;;;;;77.62;52.60;;;;;;;-2.09;59.14;101724.53;4422295;32;20144;-73
2024/01/22 01:45:15;;;;;;;79.80;50.03;;;;;;;-1.88;58.58;101725.63;4434087;27;20489;-73
2024/01/22 01:47:47;;;;;;;71.78;50.05;;;;;;;-1.92;58.62;101726.44;4422714;32;20510;-73
2024/01/22 01:50:18;;;;;;;73.37;50.83;;;;;;;-2.04;58.61;101721.97;4422731;32;20168;-73
2024/01/22 01:52:49;;;;;;;70.97;49.05;;;;;;;-1.95;58.53;101721.22;4408334;32;20164;-72
2024/01/22 01:55:21;;;;;;;75.68;51.33;;;;;;;-2.14;59.03;101725.31;4407295;32;20185;-73
2024/01/22 01:57:51;;;;;;;71.28;48.97;;;;;;;-1.96;58.70;101715.16;4405709;32;20188;-73
2024/01/22 02:00:30;;;;;;;66.87;47.15;;;;;;;-1.76;58.05;101717.97;4413124;32;20159;-72
2024/01/22 02:03:00;;;;;;;77.05;47.78;;;;;;;-1.93;58.32;101709.13;4422799;32;20149;-72
2024/01/22 02:05:30;;;;;;;77.70;46.95;;;;;;;-2.10;58.78;101716.69;4423761;32;20132;-72
2024/01/22 02:08:00;;;;;;;70.72;48.38;;;;;;;-2.05;58.72;101712.44;4423106;32;20136;-72
2024/01/22 02:10:31;;;;;;;68.85;49.00;;;;;;;-2.14;58.71;101722.72;4423514;32;20490;-72
2024/01/22 02:13:06;;;;;;;66.03;46.92;;;;;;;-2.20;59.13;101710.53;4423273;32;20152;-72
2024/01/22 02:15:35;;;;;;;74.97;48.55;;;;;;;-2.11;58.63;101718.44;4432414;27;20140;-72
2024/01/22 02:18:05;;;;;;;73.40;50.97;;;;;;;-2.52;59.67;101721.37;4437295;32;20164;-72
2024/01/22 02:20:35;;;;;;;70.55;47.25;;;;;;;-2.15;58.79;101718.37;4436638;32;20151;-73
2024/01/22 02:23:07;;;;;;;74.40;49.17;;;;;;;-2.14;58.49;101708.00;4437480;32;20156;-72
2024/01/22 02:25:36;;;;;;;71.18;49.13;;;;;;;-2.37;58.76;101710.34;4436477;32;20152;-72
2024/01/22 02:28:06;;;;;;;66.93;46.78;;;;;;;-2.63;59.39;101707.41;4421595;32;20155;-72
2024/01/22 02:30:38;;;;;;;73.12;47.38;;;;;;;-2.49;59.22;101690.28;4437046;32;20192;-72
2024/01/22 02:33:15;;;;;;;73.20;49.00;;;;;;;-2.57;59.10;101694.50;4437117;32;20517;-72
2024/01/22 02:35:49;;;;;;;72.93;47.40;;;;;;;-2.64;59.45;101689.22;4436984;32;20390;-72
2024/01/22 02:38:20;;;;;;;73.47;48.33;;;;;;;-2.61;59.37;101697.06;4437178;32;20148;-72
2024/01/22 02:40:49;;;;;;;71.18;47.42;;;;;;;-2.49;58.98;101687.69;4437043;32;20521;-72
2024/01/22 02:43:19;;;;;;;69.57;47.40;;;;;;;-2.74;59.62;101678.69;4436940;32;20869;-72
2024/01/22 02:45:49;;;;;;;78.93;50.50;;;;;;;-2.60;59.21;101678.91;4441984;27;20517;-72
2024/01/22 02:48:18;;;;;;;77.45;49.63;;;;;;;-2.62;58.99;101680.59;4437074;32;20132;-72
2024/01/22 02:50:48;;;;;;;66.75;45.35;;;;;;;-2.52;58.64;101684.19;4436669;32;20168;-73
2024/01/22 02:53:17;;;;;;;68.18;47.25;;;;;;;-2.61;58.69;101686.66;4437253;32;20121;-72
2024/01/22 02:55:52;;;;;;;65.25;47.75;;;;;;;-2.52;58.57;101672.06;4437030;32;20144;-72
2024/01/22 02:58:21;;;;;;;71.80;45.33;;;;;;;-2.54;58.44;101671.16;4435568;32;20438;-72
2024/01/22 03:00:50;;;;;;;73.28;51.92;;;;;;;-2.43;58.27;101673.91;4436598;32;20497;-72
2024/01/22 03:03:19;;;;;;;81.97;50.70;;;;;;;-2.62;59.08;101672.81;4436629;32;20140;-72
2024/01/22 03:05:52;;;;;;;68.12;46.22;;;;;;;-2.61;59.26;101668.50;4436556;32;20140;-72
2024/01/22 03:08:21;;;;;;;73.00;48.97;;;;;;;-2.52;59.41;101666.03;4437182;32;20152;-72
2024/01/22 03:10:52;;;;;;;69.53;47.90;;;;;;;-2.66;59.75;101665.81;4429955;32;20145;-72
2024/01/22 03:13:21;;;;;;;94.68;61.75;;;;;;;-2.57;59.59;101671.16;4421364;32;20165;-72
2024/01/22 03:15:52;;;;;;;80.45;52.95;;;;;;;-2.33;58.97;101664.53;4433558;27;20168;-72
2024/01/22 03:18:24;;;;;;;69.20;48.22;;;;;;;-2.36;58.83;101656.69;4436427;32;20437;-72
2024/01/22 03:20:54;;;;;;;74.95;49.92;;;;;;;-2.57;59.13;101655.59;4436158;32;20469;-72
2024/01/22 03:23:23;;;;;;;75.90;52.03;;;;;;;-2.46;58.73;101660.87;4436915;32;20411;-72
2024/01/22 03:25:55;;;;;;;75.37;51.47;;;;;;;-2.55;58.87;101653.87;4436494;32;20136;-72
2024/01/22 03:28:24;;;;;;;80.47;51.53;;;;;;;-2.48;58.78;101650.50;4435502;32;20182;-72
2024/01/22 03:30:54;;;;;;;79.32;48.70;;;;;;;-2.31;58.23;101647.22;4436153;32;20194;-72
2024/01/22 03:33:23;;;;;;;80.00;52.62;;;;;;;-2.52;58.35;101651.31;4436157;32;20148;-72
2024/01/22 03:35:54;;;;;;;76.47;49.33;;;;;;;-2.58;58.92;101658.13;4436321;32;20140;-72
2024/01/22 03:38:23;;;;;;;74.90;49.33;;;;;;;-2.77;59.25;101657.94;4438418;32;20153;-72
2024/01/22 03:40:53;;;;;;;77.70;49.35;;;;;;;-2.68;59.00;101648.50;4438379;32;20151;-72
2024/01/22 03:43:23;;;;;;;75.70;48.92;;;;;;;-2.50;58.50;101649.59;4438141;32;20462;-72
2024/01/22 03:45:54;;;;;;;76.18;50.47;;;;;;;-2.62;58.90;101651.16;4442902;27;20164;-72
2024/01/22 03:48:24;;;;;;;80.85;51.15;;;;;;;-2.82;59.24;101656.97;4438223;32;20168;-72
2024/01/22 03:50:54;;;;;;;71.80;47.75;;;;;;;-2.61;58.67;101652.94;4437805;32;20215;-72
2024/01/22 03:53:24;;;;;;;77.68;50.47;;;;;;;-2.59;58.48;101659.00;4438544;32;20133;-72
2024/01/22 03:55:54;;;;;;;66.97;43.83;;;;;;;-2.69;58.89;101654.53;4438198;32;20156;-72
2024/01/22 03:58:25;;;;;;;80.72;48.72;;;;;;;-2.61;58.72;101658.13;4436937;32;20144;-72
2024/01/22 04:00:57;;;;;;;77.05;50.45;;;;;;;-2.93;58.77;101650.78;4438012;32;20789;-72
2024/01/22 04:03:26;;;;;;;74.03;50.47;;;;;;;-2.85;58.63;101643.97;4438198;32;20172;-72
2024/01/22 04:05:56;;;;;;;81.05;52.65;;;;;;;-3.12;59.50;101643.59;4438102;32;20148;-72
2024/01/22 04:08:28;;;;;;;73.87;49.83;;;;;;;-2.97;59.23;101648.97;4438319;32;20156;-72
2024/01/22 04:10:58;;;;;;;75.28;49.60;;;;;;;-3.00;59.41;101655.00;4430745;32;20156;-72
2024/01/22 04:13:29;;;;;;;81.55;53.28;;;;;;;-3.06;59.47;101648.84;4422538;32;20160;-72
2024/01/22 04:16:03;;;;;;;76.62;51.85;;;;;;;-2.97;59.37;101648.97;4427812;27;20148;-72
2024/01/22 04:18:32;;;;;;;77.80;51.80;;;;;;;-3.14;59.48;101640.09;4422491;32;20141;-72
2024/01/22 04:21:02;;;;;;;74.05;51.22;;;;;;;-2.89;58.46;101633.53;4422442;32;20149;-72
2024/01/22 04:23:33;;;;;;;80.10;52.53;;;;;;;-3.01;58.68;101626.44;4422940;32;20481;-72
2024/01/22 04:28:38;;;;;;;82.85;55.17;;;;;;;-2.91;58.67;101636.09;4421834;32;20498;-73
2024/01/22 04:31:08;;;;;;;86.55;59.45;;;;;;;-3.05;58.79;101622.06;4422354;32;20184;-73
2024/01/22 04:33:37;;;;;;;84.50;56.10;;;;;;;-3.27;59.31;101626.09;4422673;32;20139;-72
2024/01/22 04:36:13;;;;;;;88.37;55.78;;;;;;;-3.24;59.25;101621.81;4422277;32;20152;-73
2024/01/22 04:38:43;;;;;;;77.32;50.70;;;;;;;-2.98;58.71;101622.16;4422422;32;20149;-73
2024/01/22 04:41:13;;;;;;;84.03;53.45;;;;;;;-3.14;58.98;101621.94;4422767;32;20152;-73
2024/01/22 04:43:48;;;;;;;83.75;56.00;;;;;;;-3.16;58.77;101627.13;4422452;32;20457;-73
2024/01/22 04:46:18;;;;;;;82.97;55.30;;;;;;;-3.15;58.74;101631.44;4436789;27;20144;-73
2024/01/22 04:48:47;;;;;;;76.40;51.25;;;;;;;-2.92;58.28;101625.72;4437452;32;20160;-73
2024/01/22 04:51:17;;;;;;;75.80;50.80;;;;;;;-2.74;57.85;101629.41;4423299;32;20164;-73
2024/01/22 04:53:48;;;;;;;77.47;51.97;;;;;;;-2.84;57.95;101632.75;4424087;32;20157;-73
2024/01/22 04:56:18;;;;;;;89.37;56.93;;;;;;;-3.10;58.27;101644.47;4424002;32;20136;-73
2024/01/22 04:58:49;;;;;;;78.18;49.60;;;;;;;-3.17;58.36;101640.03;4437234;32;20263;-73
2024/01/22 05:01:18;;;;;;;80.12;53.67;;;;;;;-3.19;58.41;101649.53;4437737;32;20136;-73
2024/01/22 05:03:48;;;;;;;67.90;46.05;;;;;;;-3.12;58.46;101644.47;4437729;32;20156;-73
2024/01/22 05:06:19;;;;;;;73.32;48.40;;;;;;;-3.01;58.12;101650.69;4437842;32;20428;-73
2024/01/22 05:08:48;;;;;;;71.03;46.37;;;;;;;-3.26;58.41;101640.78;4437806;32;20140;-73
2024/01/22 05:11:17;;;;;;;67.85;45.35;;;;;;;-3.11;57.96;101632.38;4438065;32;20620;-73
2024/01/22 05:13:51;;;;;;;70.57;47.42;;;;;;;-3.32;58.41;101633.78;4437821;32;20156;-73
2024/01/22 05:16:22;;;;;;;70.37;46.53;;;;;;;-3.19;58.01;101628.78;4449085;27;20153;-73
2024/01/22 05:18:53;;;;;;;73.55;47.78;;;;;;;-3.16;57.85;101623.66;4437656;32;20434;-73
2024/01/22 05:21:23;;;;;;;63.67;45.85;;;;;;;-3.23;57.78;101623.56;4423922;32;20537;-73
2024/01/22 05:23:52;;;;;;;71.70;44.60;;;;;;;-3.24;57.60;101615.75;4421076;32;20185;-73
2024/01/22 05:26:21;;;;;;;72.10;48.28;;;;;;;-3.34;57.99;101611.28;4422678;32;20160;-73
2024/01/22 05:28:52;;;;;;;79.05;50.47;;;;;;;-3.37;58.19;101613.81;4436697;32;20152;-72
2024/01/22 05:31:21;;;;;;;70.18;48.80;;;;;;;-3.39;58.42;101608.62;4438088;32;20160;-72
2024/01/22 05:33:51;;;;;;;77.82;47.95;;;;;;;-3.45;58.62;101608.53;4438187;32;20140;-73
2024/01/22 05:36:20;;;;;;;73.50;46.78;;;;;;;-3.55;58.70;101602.34;4437903;32;20160;-73
2024/01/22 05:38:52;;;;;;;67.85;46.70;;;;;;;-3.55;58.77;101604.06;4438047;32;20132;-73
2024/01/22 05:41:21;;;;;;;84.62;52.40;;;;;;;-3.51;58.15;101598.94;4438335;32;20341;-72
2024/01/22 05:43:52;;;;;;;70.15;47.70;;;;;;;-3.34;58.02;101595.72;4437899;32;20358;-72
2024/01/22 05:46:21;;;;;;;69.15;48.08;;;;;;;-3.35;58.07;101601.78;4442709;27;20442;-72
2024/01/22 05:48:50;;;;;;;77.68;51.88;;;;;;;-3.38;58.13;101602.59;4437853;32;20136;-72
2024/01/22 05:51:19;;;;;;;81.05;50.78;;;;;;;-3.47;58.23;101610.22;4424834;32;20144;-72
2024/01/22 05:53:48;;;;;;;82.45;53.10;;;;;;;-3.30;57.66;101597.50;4422894;32;20472;-73
2024/01/22 05:56:22;;;;;;;72.82;54.20;;;;;;;-3.37;58.00;101593.09;4423420;32;20140;-73
2024/01/22 05:58:53;;;;;;;80.45;53.75;;;;;;;-3.42;57.98;101600.78;4436217;32;20179;-72
2024/01/22 06:01:23;;;;;;;84.82;55.38;;;;;;;-3.61;58.65;101596.19;4437612;32;20147;-73
2024/01/22 06:03:52;;;;;;;92.22;58.97;;;;;;;-3.32;58.22;101589.72;4437710;32;20432;-73
2024/01/22 06:06:23;;;;;;;87.03;60.53;;;;;;;-3.35;58.24;101596.59;4437557;32;20155;-73
2024/01/22 06:08:53;;;;;;;86.45;58.95;;;;;;;-3.45;58.81;101603.34;4437700;32;20215;-73
2024/01/22 06:11:22;;;;;;;85.10;56.67;;;;;;;-3.52;58.85;101597.22;4428098;32;20140;-73
2024/01/22 06:13:52;;;;;;;88.30;57.33;;;;;;;-3.18;58.55;101594.22;4421876;32;20145;-73
2024/01/22 06:16:31;;;;;;;88.78;59.40;;;;;;;-3.39;59.61;101593.06;4413013;27;20418;-73
2024/01/22 06:19:01;;;;;;;85.97;58.30;;;;;;;-3.48;60.42;101592.94;4431228;32;20428;-73
2024/01/22 06:21:30;;;;;;;86.43;57.50;;;;;;;-3.33;60.44;101582.78;4436881;32;20152;-73
2024/01/22 06:23:59;;;;;;;84.93;58.33;;;;;;;-3.37;60.96;101587.91;4437344;32;20167;-73
2024/01/22 06:26:29;;;;;;;81.57;53.53;;;;;;;-3.31;60.76;101590.59;4437793;32;20151;-73
2024/01/22 06:29:02;;;;;;;91.15;56.05;;;;;;;-3.49;61.40;101591.19;4436428;32;20133;-73
2024/01/22 06:31:31;;;;;;;87.15;57.62;;;;;;;-3.27;61.79;101593.25;4437393;32;20164;-73
2024/01/22 06:34:01;;;;;;;87.97;56.22;;;;;;;-3.04;62.46;101600.50;4437149;32;20423;-72
2024/01/22 06:36:31;;;;;;;101.45;62.72;;;;;;;-3.04;63.15;101600.50;4423375;32;20477;-73
2024/01/22 06:39:01;;;;;;;91.93;61.33;;;;;;;-3.43;65.85;101591.28;4437618;32;20137;-72
2024/01/22 06:41:32;;;;;;;92.25;61.22;;;;;;;-3.25;66.38;101598.44;4437908;32;20140;-73
2024/01/22 06:44:03;;;;;;;89.30;60.60;;;;;;;-3.41;67.65;101591.31;4437081;32;20156;-73
2024/01/22 06:46:32;;;;;;;91.75;60.47;;;;;;;-3.08;67.01;101615.12;4448908;27;20416;-73
2024/01/22 06:49:01;;;;;;;93.12;59.13;;;;;;;-3.10;67.68;101619.41;4437053;32;20140;-73
2024/01/22 06:51:38;;;;;;;87.32;56.95;;;;;;;-3.15;68.52;101610.69;4422675;32;20148;-73
2024/01/22 06:54:15;;;;;;;90.82;57.85;;;;;;;-2.72;66.88;101616.47;4421774;32;20424;-73
2024/01/22 06:56:49;;;;;;;99.22;59.47;;;;;;;-2.83;67.67;101624.09;4421820;32;20205;-73
2024/01/22 06:59:20;;;;;;;;;;;;;;;-2.75;67.54;101622.47;4437223;32;20144;-72
2024/01/22 07:01:58;;;;;;;91.90;56.25;;;;;;;-2.33;66.35;101623.84;4436915;32;20067;-72
2024/01/22 07:04:30;;;;;;;83.93;56.92;;;;;;;-2.72;67.54;101616.47;4436987;32;20488;-73
2024/01/22 07:06:59;;;;;;;85.28;54.13;;;;;;;-2.85;67.75;101611.94;4422836;32;20426;-72
2024/01/22 07:09:31;;;;;;;94.40;59.05;;;;;;;-2.33;66.62;101616.06;4437195;32;20148;-72
2024/01/22 07:12:00;;;;;;;88.07;58.33;;;;;;;-2.72;67.98;101625.12;4422567;32;20195;-72
2024/01/22 07:14:31;;;;;;;85.43;57.28;;;;;;;-2.59;67.96;101625.25;4421505;32;20156;-73
2024/01/22 07:17:00;;;;;;;89.75;55.00;;;;;;;-2.72;68.38;101627.72;4439260;27;20144;-72
2024/01/22 07:19:31;;;;;;;86.70;59.38;;;;;;;-2.78;69.13;101630.22;4422436;32;20498;-72
2024/01/22 07:22:01;;;;;;;94.75;59.97;;;;;;;-2.85;68.88;101617.13;4421534;32;20144;-73
2024/01/22 07:24:33;;;;;;;93.03;58.80;;;;;;;-3.35;70.92;101630.28;4421317;32;20148;-73
2024/01/22 07:27:04;;;;;;;87.60;59.83;;;;;;;-3.14;71.02;101619.34;4422661;32;20255;-73
2024/01/22 07:29:35;;;;;;;96.05;57.88;;;;;;;-2.66;69.59;101632.09;4435698;32;20155;-73
2024/01/22 07:32:05;;;;;;;91.68;58.00;;;;;;;-2.56;69.29;101638.28;4437045;32;20164;-73
2024/01/22 07:34:34;;;;;;;83.55;57.55;;;;;;;-2.75;69.58;101640.63;4436420;32;20152;-73
2024/01/22 07:37:06;;;;;;;97.43;60.30;;;;;;;-2.58;69.72;101646.03;4436534;32;20291;-73
2024/01/22 07:39:35;;;;;;;97.93;63.73;;;;;;;-2.41;69.12;101635.00;4436382;32;20144;-73
2024/01/22 07:42:05;;;;;;;91.30;57.50;;;;;;;-2.36;69.29;101641.13;4436233;32;20535;-73
2024/01/22 07:44:36;;;;;;;85.50;56.17;;;;;;;-2.41;69.53;101635.88;4435934;32;20168;-73
2024/01/22 07:47:05;;;;;;;89.03;58.00;;;;;;;-2.02;68.42;101638.03;4441496;27;20482;-72
2024/01/22 07:49:34;;;;;;;92.47;58.67;;;;;;;-2.07;68.72;101639.69;4435791;32;20171;-73
2024/01/22 07:52:04;;;;;;;89.87;54.88;;;;;;;-2.28;69.46;101642.06;4420811;32;20161;-73
2024/01/22 07:54:33;;;;;;;88.32;55.08;;;;;;;-1.96;68.83;101645.00;4420733;32;20168;-73
2024/01/22 07:57:04;;;;;;;94.13;58.72;;;;;;;-1.92;68.81;101630.31;4421783;32;20162;-73
2024/01/22 07:59:33;;;;;;;89.57;55.97;;;;;;;-1.77;68.48;101630.47;4435377;32;20179;-73
2024/01/22 08:02:05;;;;;;;92.93;58.22;;;;;;;-1.98;68.88;101629.41;4435798;32;20160;-73
2024/01/22 08:04:37;;;;;;;89.65;57.35;;;;;;;-1.92;68.84;101632.91;4435951;32;20153;-73
2024/01/22 08:07:09;;;;;;;93.40;62.47;;;;;;;-2.03;68.85;101633.69;4435834;32;20140;-73
2024/01/22 08:09:40;;;;;;;88.10;55.20;;;;;;;-1.79;68.78;101640.84;4421602;32;20628;-73
2024/01/22 08:12:09;;;;;;;87.12;56.90;;;;;;;-1.61;68.06;101632.34;4420630;32;20197;-73
2024/01/22 08:14:39;;;;;;;85.00;57.47;;;;;;;-1.57;67.92;101635.84;4420183;32;20148;-73
2024/01/22 08:17:09;;;;;;;87.43;57.70;;;;;;;-1.33;66.92;101636.03;4438849;27;20148;-73
2024/01/22 08:19:39;;;;;;;98.03;59.78;;;;;;;-1.67;67.89;101641.81;4435720;32;20503;-73
2024/01/22 08:22:09;;;;;;;89.30;56.03;;;;;;;-1.80;68.78;101628.69;4435690;32;20188;-73
2024/01/22 08:24:37;;;;;;;86.55;59.13;;;;;;;-1.57;68.12;101621.09;4438050;32;20175;-73
2024/01/22 08:27:07;;;;;;;87.82;56.60;;;;;;;-1.59;68.78;101616.75;4423022;32;20136;-73
2024/01/22 08:29:38;;;;;;;85.45;58.63;;;;;;;-1.60;68.46;101615.88;4436706;32;20133;-73
2024/01/22 08:32:10;;;;;;;89.00;59.38;;;;;;;-1.61;68.68;101615.88;4424465;32;20421;-73
2024/01/22 08:34:39;;;;;;;80.82;57.83;;;;;;;-1.43;68.33;101615.12;4437992;32;20140;-73
2024/01/22 08:37:09;;;;;;;89.18;54.75;;;;;;;-1.47;68.07;101619.44;4437862;32;20132;-72
2024/01/22 08:39:38;;;;;;;79.05;52.88;;;;;;;-1.39;67.34;101616.87;4437703;32;20497;-72
2024/01/22 08:42:08;;;;;;;91.03;58.70;;;;;;;-1.24;66.76;101623.06;4438143;32;20144;-73
2024/01/22 08:44:38;;;;;;;77.85;56.33;;;;;;;-0.86;65.68;101630.25;4438523;32;20175;-73
2024/01/22 08:47:07;;;;;;;77.18;52.13;;;;;;;-0.08;63.85;101627.94;4443817;27;20176;-73
2024/01/22 08:49:40;;;;;;;72.72;49.47;;;;;;;0.61;61.72;101614.94;4438220;32;20537;-73
2024/01/22 08:52:09;;;;;;;;;;;;;;;0.72;59.75;101614.94;4422846;32;20144;-73
2024/01/22 08:54:38;;;;;;;74.53;53.17;;;;;;;1.34;59.19;101610.38;4422507;32;20021;-73
2024/01/22 08:57:08;;;;;;;70.75;53.10;;;;;;;2.12;56.64;101609.97;4422241;32;20140;-73
2024/01/22 08:59:40;;;;;;;74.28;46.92;;;;;;;2.70;55.37;101601.62;4436470;32;20147;-73
2024/01/22 09:02:09;;;;;;;64.40;45.28;;;;;;;3.46;53.08;101602.53;4438019;32;20153;-73
2024/01/22 09:04:40;;;;;;;63.97;44.65;;;;;;;3.33;52.23;101596.59;4437653;32;20144;-73
2024/01/22 09:07:10;;;;;;;64.80;47.33;;;;;;;4.29;50.31;101585.59;4437583;32;20144;-73
2024/01/22 09:09:40;;;;;;;60.83;42.97;;;;;;;3.32;52.13;101583.47;4437696;32;20147;-74
2024/01/22 09:12:10;;;;;;;72.15;46.13;;;;;;;3.99;50.00;101573.81;4422648;32;20565;-74
2024/01/22 09:14:39;;;;;;;63.00;42.58;;;;;;;4.44;49.70;101566.97;4422449;32;20149;-74
2024/01/22 09:17:11;;;;;;;59.53;44.00;;;;;;;4.76;48.28;101573.41;4447575;27;20149;-74
2024/01/22 09:19:42;;;;;;;58.15;40.67;;;;;;;5.36;47.45;101573.94;4437838;32;20156;-73
2024/01/22 09:22:11;;;;;;;59.22;43.22;;;;;;;4.89;47.55;101567.88;4422350;32;20395;-73
2024/01/22 09:24:41;;;;;;;57.80;43.33;;;;;;;5.21;46.75;101563.75;4422251;32;20145;-73
2024/01/22 09:27:11;;;;;;;57.60;43.13;;;;;;;4.77;47.49;101551.50;4422341;32;20155;-73
2024/01/22 09:29:43;;;;;;;68.32;46.35;;;;;;;4.58;48.12;101558.84;4432197;32;20196;-73
2024/01/22 09:32:14;;;;;;;56.45;42.45;;;;;;;4.69;48.44;101549.00;4422401;32;20505;-73
2024/01/22 09:34:45;;;;;;;59.13;45.55;;;;;;;4.65;48.30;101542.94;4422038;32;20141;-73
2024/01/22 09:37:15;;;;;;;54.85;43.17;;;;;;;4.96;47.74;101542.37;4421884;32;20537;-73
2024/01/22 09:39:45;;;;;;;61.05;43.75;;;;;;;5.43;46.46;101543.16;4408175;32;20153;-73
2024/01/22 09:42:14;;;;;;;62.85;43.38;;;;;;;4.96;47.21;101539.75;4421889;32;20141;-73
2024/01/22 09:44:48;;;;;;;71.47;47.08;;;;;;;5.36;46.97;101531.03;4421807;32;20138;-73
2024/01/22 09:47:18;;;;;;;62.50;45.78;;;;;;;5.38;46.73;101532.72;4427151;27;20145;-73
2024/01/22 09:49:49;;;;;;;74.85;48.53;;;;;;;5.64;46.30;101524.25;4421625;32;20152;-74
2024/01/22 09:52:18;;;;;;;60.60;43.15;;;;;;;6.29;44.33;101507.78;4406474;32;20145;-74
2024/01/22 09:54:48;;;;;;;57.05;41.75;;;;;;;5.89;44.97;101500.84;4406704;32;20141;-74
2024/01/22 09:57:20;;;;;;;66.32;43.65;;;;;;;6.33;44.52;101492.78;4407174;32;20137;-74
2024/01/22 09:59:51;;;;;;;65.62;45.58;;;;;;;5.81;44.98;101475.66;4421305;32;20295;-74
2024/01/22 10:02:22;;;;;;;61.58;45.08;;;;;;;5.27;46.49;101473.41;4422373;32;20164;-74
2024/01/22 10:04:54;;;;;;;62.47;44.45;;;;;;;5.56;46.09;101470.97;4421798;32;20181;-73
2024/01/22 10:07:23;;;;;;;71.18;42.83;;;;;;;5.51;46.27;101467.59;4421729;32;20140;-73
2024/01/22 10:09:52;;;;;;;54.97;39.90;;;;;;;6.78;56.48;101469.59;4421341;32;20498;-74
2024/01/22 10:12:22;;;;;;;50.90;39.55;;;;;;;8.13;49.71;101449.53;4406804;32;20184;-74
2024/01/22 10:14:52;;;;;;;59.35;41.60;;;;;;;8.76;44.75;101455.25;4406514;32;20165;-74
2024/01/22 10:17:25;;;;;;;56.47;39.80;;;;;;;9.19;42.31;101451.00;4431517;27;20136;-73
2024/01/22 10:20:08;;;;;;;52.62;39.33;;;;;;;9.01;42.47;101444.63;4436612;32;20148;-73
2024/01/22 10:22:38;;;;;;;54.97;38.40;;;;;;;9.74;42.95;101430.22;4437149;32;20144;-73
2024/01/22 10:25:09;;;;;;;50.22;38.20;;;;;;;10.14;39.43;101423.28;4436958;32;20152;-73
2024/01/22 10:27:38;;;;;;;47.35;36.45;;;;;;;9.53;36.89;101435.47;4433695;32;20636;-73
2024/01/22 10:30:12;;;;;;;46.88;33.55;;;;;;;7.58;40.46;101441.66;4421058;32;20144;-73
2024/01/22 10:32:42;;;;;;;48.97;34.35;;;;;;;7.37;40.40;101442.38;4421641;32;20173;-73
2024/01/22 10:35:32;;;;;;;47.62;35.40;;;;;;;6.39;42.76;101442.59;4421949;32;20148;-73
2024/01/22 10:38:10;;;;;;;43.00;33.03;;;;;;;7.40;41.06;101434.34;4436667;32;20144;-73
2024/01/22 10:40:50;;;;;;;54.15;41.25;;;;;;;6.92;41.45;101427.03;4437055;32;20155;-73
2024/01/22 10:43:21;;;;;;;49.67;32.63;;;;;;;5.67;44.23;101415.50;4436833;32;20148;-73
2024/01/22 10:45:58;;;;;;;44.70;33.45;;;;;;;4.91;45.92;101410.28;4440116;27;20231;-72
2024/01/22 10:48:29;;;;;;;49.53;35.67;;;;;;;5.10;45.81;101410.72;4436777;32;20137;-73
2024/01/22 10:51:19;;;;;;;51.05;36.58;;;;;;;4.34;47.89;101389.56;4436294;32;20141;-73
2024/01/22 10:53:53;;;;;;;50.75;40.80;;;;;;;4.78;46.72;101377.28;4437051;32;20176;-73
2024/01/22 10:56:24;;;;;;;63.85;41.70;;;;;;;5.00;46.50;101373.28;4437499;32;20533;-73
2024/01/22 10:59:00;;;;;;;51.45;38.67;;;;;;;3.71;49.49;101367.12;4436506;32;20168;-73
2024/01/22 11:01:46;;;;;;;51.42;39.35;;;;;;;4.24;48.64;101367.00;4436971;32;20157;-73
2024/01/22 11:04:22;;;;;;;62.38;45.42;;;;;;;4.29;48.44;101373.91;4437405;32;20481;-73
2024/01/22 11:06:57;;;;;;;62.62;49.25;;;;;;;4.32;48.39;101368.63;4437333;32;20164;-73
2024/01/22 11:09:31;;;;;;;57.22;37.92;;;;;;;5.03;47.28;101364.44;4437299;32;20160;-73
2024/01/22 11:12:05;;;;;;;57.50;38.63;;;;;;;5.26;46.22;101359.53;4423170;32;20245;-73
2024/01/22 11:14:35;;;;;;;56.45;37.13;;;;;;;5.36;46.03;101361.03;4421963;32;20287;-74
2024/01/22 11:17:06;;;;;;;51.83;37.92;;;;;;;5.47;45.92;101358.16;4437297;27;20506;-73
2024/01/22 11:19:36;;;;;;;57.03;38.30;;;;;;;5.79;45.17;101341.56;4437188;32;20144;-74
2024/01/22 11:22:20;;;;;;;54.97;41.80;;;;;;;4.60;47.44;101347.03;4437328;32;20144;-74
2024/01/22 11:25:06;;;;;;;53.53;40.92;;;;;;;4.43;48.56;101340.41;4437389;32;20176;-73
2024/01/22 11:27:39;;;;;;;55.22;41.50;;;;;;;4.36;49.21;101330.06;4437061;32;20160;-74
2024/01/22 11:30:32;;;;;;;62.13;43.67;;;;;;;3.84;50.59;101328.44;4437437;32;20291;-73
2024/01/22 11:33:31;;;;;;;59.25;41.63;;;;;;;3.82;50.86;101314.50;4438141;32;20279;-73